Thompson, Missouri
Current Conditions -  °F | °C
As of 10:54 AM on Thursday 27 Nov 2014 (Local Time) from KCOU Reporting Station
Broken Clouds Broken Clouds  
Wind Chill: 23°   Ceiling: 2100
Heat Index: 32°   Visibility: 10mi
Dew Point: 23°   Wind: 13mph
Humidity: 69%   Direction: 280°W
Pressure: 30.51"   Gusts: NA
Location:  39.19°N, 91.98°W
Report Text: KCOU 271654Z 28011KT 10SM BKN021 00/M05 A3051 RMK AO2 SLP340 T00001050
Loading
Personal Weather Stations






























Interactive Weather Map New forecast layout! Learn more

10-Day Weather Forecast

Advertisements
Track Severe Weather on mobile